Airfield :







YOU CAN JOIN US ON...

 
LOGIN :

Register | Disclaimer

   EN    FR    IT 

 









Legend :    VFR   Marginal VFR   IFR   Intensive IFR   Very Intensive IFR
Visi :
Ceiling :
>= 8 km
>= 3000ft
5 to 8 km
1000 to 3000 ft
1500m to 5 km
500 to 1000 ft
800 to 1500m
200 to 500 ft
< 800m
< 200 ft
Symbols :   Thunderstorms  Fog  Heavy snow  Heavy precipitations  Wind > 20 kt






- Airport Elevation : 357 ft
- IATA code : YSJ


CYSJ - Saint John

CURRENT METAR :
  • 082000Z 20006KT 15SM FEW015 BKN240 M04/M10 A3037 RMK SF1CI4 SLP293

EXPIRED METARs :
  • 081900Z 00000KT 15SM SCT240 M03/M11 A3037 RMK CI3 SLP292
  • 081800Z 26006KT 200V310 15SM FEW020 M03/M11 A3038 RMK SC1 SLP296

TAF TAF CYSJ
Valid from the 08 at 18:00 until the 09 at 06:00 UTC


081738Z 0818/0906 26008KT P6SM FEW020
FM082100 23010KT P6SM BKN120
BECMG 0821/0823 22015G25KT
FM082300 22015G25KT P6SM SCT020 OVC100
TEMPO 0823/0906 OVC020
BECMG 0901/0903 22020G35KT RMK NXT FCST BY 090000Z



MET'MAP, your aeronautical weather chart ! - Copyright ORBIFLY December 2007 - Disclaimer

ORBIFLY MET'MAP TEAM :

Programming & Development : Alexandra Zaïnal
Concept & original design : Baudouin d'Aumeries
Assistance for programming : Marc-Olivier Méhu
Technical & hardware support : Manuel Goepfert

Contact : metmap@orbifly.com




SOURCES & CREDITS :

   NOAA